In Rescue
 
Open Full Screen Window  High Contrast Mode
Wind Gusting 00 knots
04
March 01, 2024 3:36 PM EST
Weather Information
Wind Direction
  210 °
Wind Speed
  04 kt (5 mph)
Wind Gust
  00 kt (0 mph)
Altimeter
30.05 in
Visibility
10 SM
Temperature
09° C
48° F
Dewpoint
-06° C
21° F
Humidity
34%
Sky Condition
Clear
VFR

METAR KMCD 012036Z AUTO 21004KT 10SM CLR 09/M06 A3005 RMK AO2 T00911065

FAA Disclaimer: The data displayed is for advisory purposes only and is not to be used for flight planning or operations.